Briarwood, North Dakota
Current Conditions -  °F | °C
As of 8:53 PM on Wednesday 26 Nov 2014 (Local Time) from KFAR Reporting Station
Clear Clear  
Wind Chill: -23°   Ceiling: Unl
Heat Index: -8°   Visibility: 10mi
Dew Point: -14°   Wind: 7mph
Humidity: 75%   Direction: 20°NNE
Pressure: 30.53"   Gusts: NA
Location:  46.8079°N, 96.8643°W
Report Text: KFAR 270253Z 02006KT 10SM CLR M22/M26 A3053 RMK AO2 SLP368 T12221256 51008
Loading
Personal Weather Stations






























Interactive Weather Map New forecast layout! Learn more

10-Day Weather Forecast

Advertisements
Track Severe Weather on mobile